Mary Bennett — WDC4592 — position and weather

sailwx.info

Track history (hours):
 
Tides and Currents Weather Stations Pressure Air Temp Water Temp Dewpoint Dewpoint Depression Visibility Wind Speed Wind Dir Waves Ship Positions

Mary Bennett

Owner: Savannah Marine Services, Savannah, GA. More information available from US FCC via Universal Licensing System and Coast Guard Vessel Documentation Center.

Last reported at 2015-Jul-02 07:09 UTC. Time now 2015-Jul-04 08:28 UTC.
Position N 34°58' W 076°42'.

Length 21 m; draft 2.3 m.

Type: Tug. MMSI: 367027140.

Date/timePositionNaut miles runAvg speedWind from/ knotsBaromVisibWave heightAir tempDewpointWater temp
2015-Jul-02 07:09N 34°58' W 076°42'2 3.7
2015-Jul-02 06:33N 34°57' W 076°40'3 3.3
2015-Jul-02 05:33N 34°54' W 076°41'4 4.4
2015-Jul-02 04:33N 34°49' W 076°41'4 4.0
2015-Jul-02 03:33N 34°45' W 076°40'3 2.5
2015-Jul-02 02:33N 34°43' W 076°42'2 2.1
2015-Jul-02 01:33N 34°43' W 076°44'2 2.2
2015-Jul-02 00:33N 34°43' W 076°47'2 2.4
2015-Jul-01 23:33N 34°43' W 076°50'32 1.3
2015-Jun-30 22:15N 34°29' W 077°25'1 0.7
2015-Jun-30 21:31N 34°28' W 077°25'1 1.2
2015-Jun-30 20:27N 34°28' W 077°27'2 1.9
2015-Jun-30 19:33N 34°29' W 077°25'1 0.1
2015-Jun-30 12:32N 34°28' W 077°25'0 0.0
2015-Jun-29 07:33N 34°28' W 077°25'0 0.0
2015-Jun-29 06:33N 34°28' W 077°25'  
Track history (hours):
 
Tides and Currents Weather Stations Pressure Air Temp Water Temp Dewpoint Dewpoint Depression Visibility Wind Speed Wind Dir Waves Ship Positions

Mary Bennett

Owner: Savannah Marine Services, Savannah, GA. More information available from US FCC via Universal Licensing System and Coast Guard Vessel Documentation Center.

Last reported at 2015-Jul-02 07:09 UTC. Time now 2015-Jul-04 08:28 UTC.
Position N 34°58' W 076°42'.

Length 21 m; draft 2.3 m.

Type: Tug. MMSI: 367027140.

Date/timePositionNaut miles runAvg speedWind from/ knotsBaromVisibWave heightAir tempDewpointWater temp
2015-Jul-02 07:09N 34°58' W 076°42'2 3.7
2015-Jul-02 06:33N 34°57' W 076°40'3 3.3
2015-Jul-02 05:33N 34°54' W 076°41'4 4.4
2015-Jul-02 04:33N 34°49' W 076°41'4 4.0
2015-Jul-02 03:33N 34°45' W 076°40'3 2.5
2015-Jul-02 02:33N 34°43' W 076°42'2 2.1
2015-Jul-02 01:33N 34°43' W 076°44'2 2.2
2015-Jul-02 00:33N 34°43' W 076°47'2 2.4
2015-Jul-01 23:33N 34°43' W 076°50'32 1.3
2015-Jun-30 22:15N 34°29' W 077°25'1 0.7
2015-Jun-30 21:31N 34°28' W 077°25'1 1.2
2015-Jun-30 20:27N 34°28' W 077°27'2 1.9
2015-Jun-30 19:33N 34°29' W 077°25'1 0.1
2015-Jun-30 12:32N 34°28' W 077°25'0 0.0
2015-Jun-29 07:33N 34°28' W 077°25'0 0.0
2015-Jun-29 06:33N 34°28' W 077°25'  

Dump ship's entire track history